sensor_id;sensor_type;location;lat;lon;timestamp;pressure;altitude;pressure_sealevel;temperature;humidity
59831;BME280;45711;50.108;13.712;2022-11-25T00:00:35;97878.50;;;1.71;100.00
59831;BME280;45711;50.108;13.712;2022-11-25T00:03:00;97867.09;;;1.59;100.00
59831;BME280;45711;50.108;13.712;2022-11-25T00:05:26;97874.41;;;1.75;100.00
59831;BME280;45711;50.108;13.712;2022-11-25T00:07:52;97874.78;;;1.91;100.00
59831;BME280;45711;50.108;13.712;2022-11-25T00:10:18;97877.41;;;1.79;100.00
59831;BME280;45711;50.108;13.712;2022-11-25T00:12:43;97869.56;;;1.72;100.00
59831;BME280;45711;50.108;13.712;2022-11-25T00:15:09;97876.91;;;1.70;100.00
59831;BME280;45711;50.108;13.712;2022-11-25T00:17:36;97880.72;;;1.74;100.00
59831;BME280;45711;50.108;13.712;2022-11-25T00:20:03;97873.75;;;1.62;100.00
59831;BME280;45711;50.108;13.712;2022-11-25T00:22:30;97878.72;;;1.51;100.00
59831;BME280;45711;50.108;13.712;2022-11-25T00:24:55;97869.75;;;1.41;100.00
59831;BME280;45711;50.108;13.712;2022-11-25T00:27:21;97868.34;;;1.38;100.00
59831;BME280;45711;50.108;13.712;2022-11-25T00:29:46;97864.03;;;1.44;100.00
59831;BME280;45711;50.108;13.712;2022-11-25T00:32:12;97861.22;;;1.39;100.00
59831;BME280;45711;50.108;13.712;2022-11-25T00:34:39;97866.16;;;1.54;100.00
59831;BME280;45711;50.108;13.712;2022-11-25T00:37:05;97863.44;;;1.42;100.00
59831;BME280;45711;50.108;13.712;2022-11-25T00:39:30;97869.47;;;1.31;100.00
59831;BME280;45711;50.108;13.712;2022-11-25T00:41:56;97863.31;;;1.18;100.00
59831;BME280;45711;50.108;13.712;2022-11-25T00:44:39;97871.63;;;1.15;100.00
59831;BME280;45711;50.108;13.712;2022-11-25T00:47:07;97869.00;;;1.15;100.00
59831;BME280;45711;50.108;13.712;2022-11-25T00:49:34;97863.16;;;1.13;100.00
59831;BME280;45711;50.108;13.712;2022-11-25T00:52:02;97863.44;;;1.23;100.00
59831;BME280;45711;50.108;13.712;2022-11-25T00:54:28;97862.56;;;1.30;100.00
59831;BME280;45711;50.108;13.712;2022-11-25T00:56:54;97869.06;;;1.45;100.00
59831;BME280;45711;50.108;13.712;2022-11-25T00:59:20;97861.81;;;1.59;100.00
59831;BME280;45711;50.108;13.712;2022-11-25T01:01:46;97863.66;;;1.59;100.00
59831;BME280;45711;50.108;13.712;2022-11-25T01:04:11;97873.16;;;1.60;100.00
59831;BME280;45711;50.108;13.712;2022-11-25T01:06:37;97872.00;;;1.56;100.00
59831;BME280;45711;50.108;13.712;2022-11-25T01:09:05;97870.75;;;1.58;100.00
59831;BME280;45711;50.108;13.712;2022-11-25T01:11:31;97875.94;;;1.65;100.00
59831;BME280;45711;50.108;13.712;2022-11-25T01:13:56;97866.97;;;1.36;100.00
59831;BME280;45711;50.108;13.712;2022-11-25T01:16:23;97874.00;;;1.23;100.00
59831;BME280;45711;50.108;13.712;2022-11-25T01:18:49;97875.03;;;1.22;100.00
59831;BME280;45711;50.108;13.712;2022-11-25T01:21:18;97876.34;;;1.32;100.00
59831;BME280;45711;50.108;13.712;2022-11-25T01:23:45;97869.22;;;1.32;100.00
59831;BME280;45711;50.108;13.712;2022-11-25T01:26:14;97870.59;;;1.35;100.00
59831;BME280;45711;50.108;13.712;2022-11-25T01:28:40;97867.69;;;1.43;100.00
59831;BME280;45711;50.108;13.712;2022-11-25T01:31:08;97876.75;;;1.47;100.00
59831;BME280;45711;50.108;13.712;2022-11-25T01:33:34;97873.19;;;1.41;100.00
59831;BME280;45711;50.108;13.712;2022-11-25T01:36:00;97865.28;;;1.41;100.00
59831;BME280;45711;50.108;13.712;2022-11-25T01:38:27;97866.81;;;1.31;100.00
59831;BME280;45711;50.108;13.712;2022-11-25T01:40:52;97872.00;;;1.37;100.00
59831;BME280;45711;50.108;13.712;2022-11-25T01:43:19;97865.50;;;1.40;100.00
59831;BME280;45711;50.108;13.712;2022-11-25T01:45:45;97866.16;;;1.35;100.00
59831;BME280;45711;50.108;13.712;2022-11-25T01:48:15;97865.13;;;1.18;100.00
59831;BME280;45711;50.108;13.712;2022-11-25T01:50:44;97863.78;;;1.09;100.00
59831;BME280;45711;50.108;13.712;2022-11-25T01:53:12;97869.75;;;1.22;100.00
59831;BME280;45711;50.108;13.712;2022-11-25T01:55:40;97872.84;;;0.94;100.00
59831;BME280;45711;50.108;13.712;2022-11-25T01:58:11;97880.22;;;0.86;100.00
59831;BME280;45711;50.108;13.712;2022-11-25T02:00:38;97879.13;;;0.75;100.00
59831;BME280;45711;50.108;13.712;2022-11-25T02:03:04;97878.34;;;0.68;100.00
59831;BME280;45711;50.108;13.712;2022-11-25T02:05:37;97884.94;;;0.84;100.00
59831;BME280;45711;50.108;13.712;2022-11-25T02:08:05;97881.81;;;0.68;100.00
59831;BME280;45711;50.108;13.712;2022-11-25T02:10:32;97875.41;;;0.58;100.00
59831;BME280;45711;50.108;13.712;2022-11-25T02:12:59;97872.50;;;0.41;100.00
59831;BME280;45711;50.108;13.712;2022-11-25T02:15:25;97870.72;;;0.35;100.00
59831;BME280;45711;50.108;13.712;2022-11-25T02:17:52;97872.34;;;0.36;100.00
59831;BME280;45711;50.108;13.712;2022-11-25T02:20:20;97871.47;;;0.42;100.00
59831;BME280;45711;50.108;13.712;2022-11-25T02:22:52;97871.97;;;0.32;100.00
59831;BME280;45711;50.108;13.712;2022-11-25T02:25:24;97869.00;;;0.22;100.00
59831;BME280;45711;50.108;13.712;2022-11-25T02:27:54;97875.00;;;0.29;100.00
59831;BME280;45711;50.108;13.712;2022-11-25T02:30:20;97882.25;;;0.34;100.00
59831;BME280;45711;50.108;13.712;2022-11-25T02:32:47;97874.72;;;0.44;100.00
59831;BME280;45711;50.108;13.712;2022-11-25T02:35:37;97881.94;;;0.23;100.00
59831;BME280;45711;50.108;13.712;2022-11-25T02:38:06;97876.50;;;0.18;100.00
59831;BME280;45711;50.108;13.712;2022-11-25T02:40:39;97881.16;;;0.16;100.00
59831;BME280;45711;50.108;13.712;2022-11-25T02:43:05;97881.97;;;0.17;100.00
59831;BME280;45711;50.108;13.712;2022-11-25T02:45:43;97889.69;;;0.12;100.00
59831;BME280;45711;50.108;13.712;2022-11-25T02:48:11;97881.78;;;0.18;100.00
59831;BME280;45711;50.108;13.712;2022-11-25T02:50:37;97885.25;;;0.12;100.00
59831;BME280;45711;50.108;13.712;2022-11-25T02:53:02;97876.25;;;0.27;100.00
59831;BME280;45711;50.108;13.712;2022-11-25T02:55:28;97879.97;;;0.44;100.00
59831;BME280;45711;50.108;13.712;2022-11-25T02:57:55;97887.50;;;0.65;100.00
59831;BME280;45711;50.108;13.712;2022-11-25T03:00:21;97890.69;;;0.49;100.00
59831;BME280;45711;50.108;13.712;2022-11-25T03:02:47;97889.69;;;0.43;100.00
59831;BME280;45711;50.108;13.712;2022-11-25T03:05:14;97879.34;;;0.48;100.00
59831;BME280;45711;50.108;13.712;2022-11-25T03:07:40;97884.75;;;0.54;100.00
59831;BME280;45711;50.108;13.712;2022-11-25T03:10:06;97888.97;;;0.61;100.00
59831;BME280;45711;50.108;13.712;2022-11-25T03:12:32;97889.31;;;0.65;100.00
59831;BME280;45711;50.108;13.712;2022-11-25T03:14:58;97892.19;;;0.63;100.00
59831;BME280;45711;50.108;13.712;2022-11-25T03:17:24;97891.94;;;0.65;100.00
59831;BME280;45711;50.108;13.712;2022-11-25T03:19:50;97882.88;;;0.61;100.00
59831;BME280;45711;50.108;13.712;2022-11-25T03:22:15;97891.59;;;0.61;100.00
59831;BME280;45711;50.108;13.712;2022-11-25T03:24:41;97887.94;;;0.62;100.00
59831;BME280;45711;50.108;13.712;2022-11-25T03:27:06;97898.47;;;0.62;100.00
59831;BME280;45711;50.108;13.712;2022-11-25T03:29:32;97892.84;;;0.52;100.00
59831;BME280;45711;50.108;13.712;2022-11-25T03:31:59;97901.25;;;0.42;100.00
59831;BME280;45711;50.108;13.712;2022-11-25T03:34:25;97894.53;;;0.46;100.00
59831;BME280;45711;50.108;13.712;2022-11-25T03:36:50;97900.91;;;0.32;100.00
59831;BME280;45711;50.108;13.712;2022-11-25T03:39:16;97896.72;;;0.24;100.00
59831;BME280;45711;50.108;13.712;2022-11-25T03:41:41;97898.16;;;0.20;100.00
59831;BME280;45711;50.108;13.712;2022-11-25T03:44:07;97895.34;;;0.15;100.00
59831;BME280;45711;50.108;13.712;2022-11-25T03:46:32;97896.28;;;0.28;100.00
59831;BME280;45711;50.108;13.712;2022-11-25T03:48:59;97900.84;;;0.14;100.00
59831;BME280;45711;50.108;13.712;2022-11-25T03:51:28;97895.75;;;0.12;100.00
59831;BME280;45711;50.108;13.712;2022-11-25T03:53:53;97897.66;;;0.05;100.00
59831;BME280;45711;50.108;13.712;2022-11-25T03:56:19;97896.31;;;-0.11;100.00
59831;BME280;45711;50.108;13.712;2022-11-25T03:58:44;97902.13;;;-0.02;100.00
59831;BME280;45711;50.108;13.712;2022-11-25T04:01:10;97895.50;;;-0.11;100.00
59831;BME280;45711;50.108;13.712;2022-11-25T04:03:35;97901.41;;;0.16;100.00
59831;BME280;45711;50.108;13.712;2022-11-25T04:06:02;97899.66;;;0.03;100.00
59831;BME280;45711;50.108;13.712;2022-11-25T04:08:28;97901.03;;;-0.26;100.00
59831;BME280;45711;50.108;13.712;2022-11-25T04:10:53;97898.94;;;-0.11;100.00
59831;BME280;45711;50.108;13.712;2022-11-25T04:13:19;97898.47;;;-0.01;100.00
59831;BME280;45711;50.108;13.712;2022-11-25T04:15:45;97895.72;;;-0.13;100.00
59831;BME280;45711;50.108;13.712;2022-11-25T04:18:11;97891.34;;;-0.26;100.00
59831;BME280;45711;50.108;13.712;2022-11-25T04:20:37;97890.38;;;-0.38;100.00
59831;BME280;45711;50.108;13.712;2022-11-25T04:23:04;97902.09;;;-0.34;100.00
59831;BME280;45711;50.108;13.712;2022-11-25T04:25:30;97899.28;;;-0.45;100.00
59831;BME280;45711;50.108;13.712;2022-11-25T04:27:56;97898.06;;;-0.43;100.00
59831;BME280;45711;50.108;13.712;2022-11-25T04:30:21;97895.63;;;-0.38;100.00
59831;BME280;45711;50.108;13.712;2022-11-25T04:32:47;97894.59;;;-0.37;100.00
59831;BME280;45711;50.108;13.712;2022-11-25T04:35:12;97902.09;;;-0.34;100.00
59831;BME280;45711;50.108;13.712;2022-11-25T04:37:38;97907.72;;;-0.30;100.00
59831;BME280;45711;50.108;13.712;2022-11-25T04:40:06;97905.28;;;-0.25;100.00
59831;BME280;45711;50.108;13.712;2022-11-25T04:42:32;97905.88;;;-0.23;100.00
59831;BME280;45711;50.108;13.712;2022-11-25T04:44:59;97897.78;;;-0.21;100.00
59831;BME280;45711;50.108;13.712;2022-11-25T04:47:27;97896.94;;;-0.15;100.00
59831;BME280;45711;50.108;13.712;2022-11-25T04:49:52;97900.47;;;0.04;100.00
59831;BME280;45711;50.108;13.712;2022-11-25T04:52:21;97903.06;;;0.10;100.00
59831;BME280;45711;50.108;13.712;2022-11-25T04:54:46;97912.56;;;-0.27;100.00
59831;BME280;45711;50.108;13.712;2022-11-25T04:57:14;97906.88;;;-0.17;100.00
59831;BME280;45711;50.108;13.712;2022-11-25T04:59:40;97918.13;;;-0.04;100.00
59831;BME280;45711;50.108;13.712;2022-11-25T05:02:11;97916.09;;;-0.02;100.00
59831;BME280;45711;50.108;13.712;2022-11-25T05:04:38;97923.06;;;-0.20;100.00
59831;BME280;45711;50.108;13.712;2022-11-25T05:07:04;97921.06;;;-0.32;100.00
59831;BME280;45711;50.108;13.712;2022-11-25T05:09:29;97930.78;;;-0.32;100.00
59831;BME280;45711;50.108;13.712;2022-11-25T05:11:55;97915.34;;;-0.15;100.00
59831;BME280;45711;50.108;13.712;2022-11-25T05:14:22;97920.38;;;-0.14;100.00
59831;BME280;45711;50.108;13.712;2022-11-25T05:16:49;97916.94;;;-0.08;100.00
59831;BME280;45711;50.108;13.712;2022-11-25T05:19:15;97917.91;;;-0.02;100.00
59831;BME280;45711;50.108;13.712;2022-11-25T05:21:40;97921.81;;;-0.18;100.00
59831;BME280;45711;50.108;13.712;2022-11-25T05:24:06;97924.03;;;-0.15;100.00
59831;BME280;45711;50.108;13.712;2022-11-25T05:26:32;97927.91;;;-0.17;100.00
59831;BME280;45711;50.108;13.712;2022-11-25T05:28:57;97927.97;;;-0.44;100.00
59831;BME280;45711;50.108;13.712;2022-11-25T05:31:24;97926.78;;;-0.35;100.00
59831;BME280;45711;50.108;13.712;2022-11-25T05:33:50;97925.47;;;-0.19;100.00
59831;BME280;45711;50.108;13.712;2022-11-25T05:36:15;97929.53;;;-0.16;100.00
59831;BME280;45711;50.108;13.712;2022-11-25T05:38:41;97926.91;;;-0.23;100.00
59831;BME280;45711;50.108;13.712;2022-11-25T05:41:07;97922.59;;;-0.04;100.00
59831;BME280;45711;50.108;13.712;2022-11-25T05:43:36;97927.41;;;0.06;100.00
59831;BME280;45711;50.108;13.712;2022-11-25T05:46:03;97925.41;;;0.01;100.00
59831;BME280;45711;50.108;13.712;2022-11-25T05:48:30;97928.44;;;-0.02;100.00
59831;BME280;45711;50.108;13.712;2022-11-25T05:50:58;97918.47;;;0.07;100.00
59831;BME280;45711;50.108;13.712;2022-11-25T05:53:24;97925.72;;;0.18;100.00
59831;BME280;45711;50.108;13.712;2022-11-25T05:55:53;97920.16;;;0.33;100.00
59831;BME280;45711;50.108;13.712;2022-11-25T05:58:20;97919.13;;;0.34;100.00
59831;BME280;45711;50.108;13.712;2022-11-25T06:00:46;97924.91;;;0.49;100.00
59831;BME280;45711;50.108;13.712;2022-11-25T06:03:11;97933.34;;;0.58;100.00
59831;BME280;45711;50.108;13.712;2022-11-25T06:05:38;97934.66;;;0.42;100.00
59831;BME280;45711;50.108;13.712;2022-11-25T06:08:05;97944.31;;;0.16;100.00
59831;BME280;45711;50.108;13.712;2022-11-25T06:10:31;97950.22;;;0.12;100.00
59831;BME280;45711;50.108;13.712;2022-11-25T06:12:57;97948.38;;;0.19;100.00
59831;BME280;45711;50.108;13.712;2022-11-25T06:15:22;97944.72;;;0.20;100.00
59831;BME280;45711;50.108;13.712;2022-11-25T06:17:48;97949.75;;;0.21;100.00
59831;BME280;45711;50.108;13.712;2022-11-25T06:20:13;97953.41;;;0.20;100.00
59831;BME280;45711;50.108;13.712;2022-11-25T06:22:40;97951.50;;;0.34;100.00
59831;BME280;45711;50.108;13.712;2022-11-25T06:25:07;97950.03;;;0.45;100.00
59831;BME280;45711;50.108;13.712;2022-11-25T06:27:33;97954.28;;;0.46;100.00
59831;BME280;45711;50.108;13.712;2022-11-25T06:29:59;97952.81;;;0.57;100.00
59831;BME280;45711;50.108;13.712;2022-11-25T06:32:24;97958.97;;;0.69;100.00
59831;BME280;45711;50.108;13.712;2022-11-25T06:34:50;97967.00;;;0.81;100.00
59831;BME280;45711;50.108;13.712;2022-11-25T06:37:16;97970.34;;;0.94;100.00
59831;BME280;45711;50.108;13.712;2022-11-25T06:39:42;97967.59;;;1.08;100.00
59831;BME280;45711;50.108;13.712;2022-11-25T06:42:08;97965.88;;;1.20;100.00
59831;BME280;45711;50.108;13.712;2022-11-25T06:44:34;97973.78;;;1.20;100.00
59831;BME280;45711;50.108;13.712;2022-11-25T06:46:59;97971.16;;;1.20;100.00
59831;BME280;45711;50.108;13.712;2022-11-25T06:49:25;97970.44;;;1.31;100.00
59831;BME280;45711;50.108;13.712;2022-11-25T06:51:50;97970.97;;;1.40;100.00
59831;BME280;45711;50.108;13.712;2022-11-25T06:54:16;97972.88;;;1.51;100.00
59831;BME280;45711;50.108;13.712;2022-11-25T06:56:43;97978.28;;;1.56;100.00
59831;BME280;45711;50.108;13.712;2022-11-25T06:59:08;97982.50;;;1.64;100.00
59831;BME280;45711;50.108;13.712;2022-11-25T07:01:34;97984.22;;;1.51;100.00
59831;BME280;45711;50.108;13.712;2022-11-25T07:04:02;97987.91;;;1.50;100.00
59831;BME280;45711;50.108;13.712;2022-11-25T07:06:29;97980.50;;;1.41;100.00
59831;BME280;45711;50.108;13.712;2022-11-25T07:08:57;97989.13;;;1.48;100.00
59831;BME280;45711;50.108;13.712;2022-11-25T07:11:25;97990.69;;;1.56;100.00
59831;BME280;45711;50.108;13.712;2022-11-25T07:13:54;97994.72;;;1.58;100.00
59831;BME280;45711;50.108;13.712;2022-11-25T07:16:21;97993.56;;;1.72;100.00
59831;BME280;45711;50.108;13.712;2022-11-25T07:18:48;97998.50;;;1.87;100.00
59831;BME280;45711;50.108;13.712;2022-11-25T07:21:16;98004.25;;;1.77;100.00
59831;BME280;45711;50.108;13.712;2022-11-25T07:23:43;97999.28;;;1.88;100.00
59831;BME280;45711;50.108;13.712;2022-11-25T07:26:14;97997.75;;;1.80;100.00
59831;BME280;45711;50.108;13.712;2022-11-25T07:28:41;97999.59;;;1.80;100.00
59831;BME280;45711;50.108;13.712;2022-11-25T07:31:10;98005.81;;;1.85;100.00
59831;BME280;45711;50.108;13.712;2022-11-25T07:33:38;98009.59;;;2.08;100.00
59831;BME280;45711;50.108;13.712;2022-11-25T07:36:06;98005.28;;;1.95;100.00
59831;BME280;45711;50.108;13.712;2022-11-25T07:38:32;98010.34;;;1.96;100.00
59831;BME280;45711;50.108;13.712;2022-11-25T07:41:03;98003.53;;;2.07;100.00
59831;BME280;45711;50.108;13.712;2022-11-25T07:43:28;98003.38;;;2.02;100.00
59831;BME280;45711;50.108;13.712;2022-11-25T07:45:54;97999.34;;;1.99;100.00
59831;BME280;45711;50.108;13.712;2022-11-25T07:48:21;97997.34;;;2.13;100.00
59831;BME280;45711;50.108;13.712;2022-11-25T07:50:46;97987.88;;;2.24;100.00
59831;BME280;45711;50.108;13.712;2022-11-25T07:53:14;97999.19;;;2.31;100.00
59831;BME280;45711;50.108;13.712;2022-11-25T07:55:39;97996.19;;;2.39;100.00
59831;BME280;45711;50.108;13.712;2022-11-25T07:58:05;97994.41;;;2.40;100.00
59831;BME280;45711;50.108;13.712;2022-11-25T08:00:30;97993.22;;;2.36;100.00
59831;BME280;45711;50.108;13.712;2022-11-25T08:02:56;97989.91;;;2.40;100.00
59831;BME280;45711;50.108;13.712;2022-11-25T08:05:23;97994.06;;;2.48;100.00
59831;BME280;45711;50.108;13.712;2022-11-25T08:07:48;97990.13;;;2.39;100.00
59831;BME280;45711;50.108;13.712;2022-11-25T08:10:14;97990.03;;;2.45;100.00
59831;BME280;45711;50.108;13.712;2022-11-25T08:12:40;97992.81;;;2.50;100.00
59831;BME280;45711;50.108;13.712;2022-11-25T08:15:06;97990.78;;;2.64;100.00
59831;BME280;45711;50.108;13.712;2022-11-25T08:17:32;98004.34;;;2.68;100.00
59831;BME280;45711;50.108;13.712;2022-11-25T08:19:57;98001.03;;;2.72;100.00
59831;BME280;45711;50.108;13.712;2022-11-25T08:22:25;98006.81;;;2.81;100.00
59831;BME280;45711;50.108;13.712;2022-11-25T08:24:50;98013.34;;;2.78;100.00
59831;BME280;45711;50.108;13.712;2022-11-25T08:27:16;98015.97;;;2.78;100.00
59831;BME280;45711;50.108;13.712;2022-11-25T08:29:41;98016.94;;;2.84;100.00
59831;BME280;45711;50.108;13.712;2022-11-25T08:32:07;98032.53;;;2.74;100.00
59831;BME280;45711;50.108;13.712;2022-11-25T08:34:33;98031.94;;;2.72;100.00
59831;BME280;45711;50.108;13.712;2022-11-25T08:36:59;98023.75;;;3.03;100.00
59831;BME280;45711;50.108;13.712;2022-11-25T08:39:26;98028.13;;;2.98;100.00
59831;BME280;45711;50.108;13.712;2022-11-25T08:41:51;98018.25;;;3.05;100.00
59831;BME280;45711;50.108;13.712;2022-11-25T08:44:17;98020.38;;;2.85;100.00
59831;BME280;45711;50.108;13.712;2022-11-25T08:46:42;98024.88;;;2.84;100.00
59831;BME280;45711;50.108;13.712;2022-11-25T08:49:10;98021.09;;;2.92;100.00
59831;BME280;45711;50.108;13.712;2022-11-25T08:51:37;98015.13;;;2.96;100.00
59831;BME280;45711;50.108;13.712;2022-11-25T08:54:03;98024.81;;;3.14;100.00
59831;BME280;45711;50.108;13.712;2022-11-25T08:56:31;98020.53;;;3.01;100.00
59831;BME280;45711;50.108;13.712;2022-11-25T08:58:56;98016.81;;;2.91;100.00
59831;BME280;45711;50.108;13.712;2022-11-25T09:01:23;98011.22;;;2.99;100.00
59831;BME280;45711;50.108;13.712;2022-11-25T09:03:50;98025.50;;;3.21;100.00
59831;BME280;45711;50.108;13.712;2022-11-25T09:06:17;98028.25;;;3.03;100.00
59831;BME280;45711;50.108;13.712;2022-11-25T09:08:44;98029.63;;;3.06;100.00
59831;BME280;45711;50.108;13.712;2022-11-25T09:11:10;98028.34;;;3.08;100.00
59831;BME280;45711;50.108;13.712;2022-11-25T09:13:38;98037.13;;;3.44;100.00
59831;BME280;45711;50.108;13.712;2022-11-25T09:16:04;98031.50;;;3.52;100.00
59831;BME280;45711;50.108;13.712;2022-11-25T09:18:30;98031.84;;;3.56;100.00
59831;BME280;45711;50.108;13.712;2022-11-25T09:20:57;98035.22;;;3.63;100.00
59831;BME280;45711;50.108;13.712;2022-11-25T09:23:24;98041.78;;;3.48;100.00
59831;BME280;45711;50.108;13.712;2022-11-25T09:25:50;98043.72;;;3.41;100.00
59831;BME280;45711;50.108;13.712;2022-11-25T09:28:16;98040.25;;;3.88;99.44
59831;BME280;45711;50.108;13.712;2022-11-25T09:30:43;98039.63;;;4.09;98.19
59831;BME280;45711;50.108;13.712;2022-11-25T09:33:09;98045.41;;;4.58;94.15
59831;BME280;45711;50.108;13.712;2022-11-25T09:35:35;98037.13;;;4.43;94.08
59831;BME280;45711;50.108;13.712;2022-11-25T09:38:01;98038.88;;;3.97;97.96
59831;BME280;45711;50.108;13.712;2022-11-25T09:40:33;98043.03;;;3.81;99.04
59831;BME280;45711;50.108;13.712;2022-11-25T09:43:06;98049.72;;;3.84;98.58
59831;BME280;45711;50.108;13.712;2022-11-25T09:46:04;98037.31;;;4.13;97.64
59831;BME280;45711;50.108;13.712;2022-11-25T09:48:58;98043.38;;;4.37;96.12
59831;BME280;45711;50.108;13.712;2022-11-25T09:51:29;98049.09;;;4.57;94.90
59831;BME280;45711;50.108;13.712;2022-11-25T09:54:05;98049.84;;;4.69;93.51
59831;BME280;45711;50.108;13.712;2022-11-25T09:56:35;98046.31;;;4.52;95.04
59831;BME280;45711;50.108;13.712;2022-11-25T09:59:06;98056.53;;;4.72;92.65
59831;BME280;45711;50.108;13.712;2022-11-25T10:01:44;98054.97;;;4.47;93.97
59831;BME280;45711;50.108;13.712;2022-11-25T10:04:12;98054.69;;;4.61;93.84
59831;BME280;45711;50.108;13.712;2022-11-25T10:06:44;98057.69;;;4.36;96.45
59831;BME280;45711;50.108;13.712;2022-11-25T10:09:14;98067.34;;;4.42;96.00
59831;BME280;45711;50.108;13.712;2022-11-25T10:11:49;98058.94;;;4.33;97.07
59831;BME280;45711;50.108;13.712;2022-11-25T10:14:23;98063.91;;;4.29;96.29
59831;BME280;45711;50.108;13.712;2022-11-25T10:16:58;98064.16;;;4.57;96.17
59831;BME280;45711;50.108;13.712;2022-11-25T10:19:37;98062.50;;;4.79;93.72
59831;BME280;45711;50.108;13.712;2022-11-25T10:22:23;98075.34;;;4.87;91.82
59831;BME280;45711;50.108;13.712;2022-11-25T10:24:51;98069.88;;;4.48;94.84
59831;BME280;45711;50.108;13.712;2022-11-25T10:27:20;98070.16;;;4.52;95.40
59831;BME280;45711;50.108;13.712;2022-11-25T10:29:51;98071.44;;;4.90;93.23
59831;BME280;45711;50.108;13.712;2022-11-25T10:32:23;98065.84;;;4.34;96.57
59831;BME280;45711;50.108;13.712;2022-11-25T10:34:52;98066.97;;;4.50;96.15
59831;BME280;45711;50.108;13.712;2022-11-25T10:37:32;98065.31;;;4.20;98.52
59831;BME280;45711;50.108;13.712;2022-11-25T10:39:59;98068.28;;;4.64;95.29
59831;BME280;45711;50.108;13.712;2022-11-25T10:42:26;98066.75;;;4.80;94.65
59831;BME280;45711;50.108;13.712;2022-11-25T10:44:52;98060.09;;;4.37;95.59
59831;BME280;45711;50.108;13.712;2022-11-25T10:47:29;98061.34;;;4.75;93.42
59831;BME280;45711;50.108;13.712;2022-11-25T10:50:05;98055.94;;;4.98;91.28
59831;BME280;45711;50.108;13.712;2022-11-25T10:52:37;98055.22;;;5.03;91.58
59831;BME280;45711;50.108;13.712;2022-11-25T10:55:09;98059.47;;;5.04;91.51
59831;BME280;45711;50.108;13.712;2022-11-25T10:57:35;98056.75;;;5.16;90.18
59831;BME280;45711;50.108;13.712;2022-11-25T11:00:03;98059.31;;;4.94;91.52
59831;BME280;45711;50.108;13.712;2022-11-25T11:02:37;98052.00;;;5.01;91.61
59831;BME280;45711;50.108;13.712;2022-11-25T11:05:16;98055.72;;;5.17;89.85
59831;BME280;45711;50.108;13.712;2022-11-25T11:07:44;98050.63;;;4.98;91.55
59831;BME280;45711;50.108;13.712;2022-11-25T11:10:17;98051.59;;;5.09;89.94
59831;BME280;45711;50.108;13.712;2022-11-25T11:12:53;98053.09;;;4.88;92.86
59831;BME280;45711;50.108;13.712;2022-11-25T11:15:21;98051.00;;;4.90;92.18
59831;BME280;45711;50.108;13.712;2022-11-25T11:17:49;98047.41;;;5.13;92.37
59831;BME280;45711;50.108;13.712;2022-11-25T11:20:19;98050.56;;;5.10;90.97
59831;BME280;45711;50.108;13.712;2022-11-25T11:22:49;98053.31;;;5.15;91.83
59831;BME280;45711;50.108;13.712;2022-11-25T11:25:28;98051.94;;;5.13;91.66
59831;BME280;45711;50.108;13.712;2022-11-25T11:27:55;98048.88;;;5.04;90.89
59831;BME280;45711;50.108;13.712;2022-11-25T11:30:22;98045.09;;;5.17;91.07
59831;BME280;45711;50.108;13.712;2022-11-25T11:32:56;98041.59;;;5.28;91.25
59831;BME280;45711;50.108;13.712;2022-11-25T11:35:25;98051.22;;;5.34;89.60
59831;BME280;45711;50.108;13.712;2022-11-25T11:37:56;98042.94;;;5.30;89.58
59831;BME280;45711;50.108;13.712;2022-11-25T11:40:30;98042.13;;;5.30;89.83
59831;BME280;45711;50.108;13.712;2022-11-25T11:43:16;98032.91;;;5.33;90.72
59831;BME280;45711;50.108;13.712;2022-11-25T11:45:55;98037.94;;;5.51;88.52
59831;BME280;45711;50.108;13.712;2022-11-25T11:48:31;98035.38;;;5.06;92.67
59831;BME280;45711;50.108;13.712;2022-11-25T11:51:10;98033.09;;;4.81;94.37
59831;BME280;45711;50.108;13.712;2022-11-25T11:53:47;98035.47;;;4.82;94.17
59831;BME280;45711;50.108;13.712;2022-11-25T11:56:19;98035.31;;;4.72;95.43
59831;BME280;45711;50.108;13.712;2022-11-25T11:58:51;98042.28;;;5.07;93.53
59831;BME280;45711;50.108;13.712;2022-11-25T12:01:34;98032.91;;;4.87;93.32
59831;BME280;45711;50.108;13.712;2022-11-25T12:04:10;98034.13;;;4.79;94.43
59831;BME280;45711;50.108;13.712;2022-11-25T12:06:41;98034.88;;;4.63;94.43
59831;BME280;45711;50.108;13.712;2022-11-25T12:09:14;98039.50;;;4.56;95.58
59831;BME280;45711;50.108;13.712;2022-11-25T12:11:44;98037.78;;;4.62;95.43
59831;BME280;45711;50.108;13.712;2022-11-25T12:14:20;98034.13;;;4.51;96.52
59831;BME280;45711;50.108;13.712;2022-11-25T12:16:54;98031.69;;;4.78;95.25
59831;BME280;45711;50.108;13.712;2022-11-25T12:19:26;98027.41;;;4.89;94.62
59831;BME280;45711;50.108;13.712;2022-11-25T12:22:00;98030.09;;;4.77;94.90
59831;BME280;45711;50.108;13.712;2022-11-25T12:24:31;98025.25;;;4.74;94.59
59831;BME280;45711;50.108;13.712;2022-11-25T12:27:05;98022.31;;;4.87;94.07
59831;BME280;45711;50.108;13.712;2022-11-25T12:29:35;98021.34;;;4.76;94.15
59831;BME280;45711;50.108;13.712;2022-11-25T12:32:16;98014.63;;;4.57;96.39
59831;BME280;45711;50.108;13.712;2022-11-25T12:34:55;98008.34;;;4.92;93.48
59831;BME280;45711;50.108;13.712;2022-11-25T12:37:38;97997.81;;;4.80;94.48
59831;BME280;45711;50.108;13.712;2022-11-25T12:40:14;97998.72;;;5.02;92.86
59831;BME280;45711;50.108;13.712;2022-11-25T12:42:41;97996.09;;;4.74;95.39
59831;BME280;45711;50.108;13.712;2022-11-25T12:45:13;98004.69;;;4.64;96.57
59831;BME280;45711;50.108;13.712;2022-11-25T12:47:40;98017.50;;;4.84;95.97
59831;BME280;45711;50.108;13.712;2022-11-25T12:50:13;98012.06;;;5.24;92.74
59831;BME280;45711;50.108;13.712;2022-11-25T12:52:47;98013.34;;;5.22;93.15
59831;BME280;45711;50.108;13.712;2022-11-25T12:55:18;98011.59;;;5.11;93.37